createdAt,value
2022-09-03T00:00:28.007Z,39.10
2022-09-03T00:03:04.345Z,39.14
2022-09-03T00:05:48.536Z,39.17
2022-09-03T00:08:19.151Z,39.21
2022-09-03T00:10:53.595Z,39.21
2022-09-03T00:13:23.688Z,39.22
2022-09-03T00:15:51.714Z,39.24
2022-09-03T00:18:21.047Z,39.26
2022-09-03T00:20:54.534Z,39.29
2022-09-03T00:23:29.003Z,39.32
2022-09-03T00:26:17.526Z,39.31
2022-09-03T00:28:50.941Z,39.32
2022-09-03T00:31:27.323Z,39.33
2022-09-03T00:34:00.307Z,39.33
2022-09-03T00:36:36.182Z,39.37
2022-09-03T00:39:02.940Z,39.33
2022-09-03T00:42:14.073Z,39.38
2022-09-03T00:45:18.610Z,39.38
2022-09-03T00:48:12.703Z,39.39
2022-09-03T00:51:17.362Z,39.41
2022-09-03T00:53:56.336Z,39.42
2022-09-03T00:56:33.167Z,39.43
2022-09-03T00:59:33.738Z,39.44
2022-09-03T01:02:29.339Z,39.47
2022-09-03T01:05:02.079Z,39.48
2022-09-03T01:07:46.258Z,39.48
2022-09-03T01:10:12.802Z,39.49
2022-09-03T01:12:42.658Z,39.50
2022-09-03T01:15:15.830Z,39.51
2022-09-03T01:18:06.558Z,39.55
2022-09-03T01:20:42.326Z,39.55
2022-09-03T01:23:12.131Z,39.56
2022-09-03T01:25:54.667Z,39.57
2022-09-03T01:28:32.331Z,39.58
2022-09-03T01:31:42.539Z,39.60
2022-09-03T01:34:27.896Z,39.60
2022-09-03T01:37:27.633Z,39.62
2022-09-03T01:40:06.183Z,39.64
2022-09-03T01:43:02.278Z,39.65
2022-09-03T01:46:00.764Z,39.67
2022-09-03T01:48:54.093Z,39.66
2022-09-03T01:51:22.726Z,39.67
2022-09-03T01:59:33.117Z,39.67
2022-09-03T02:02:20.340Z,39.69
2022-09-03T02:05:35.755Z,39.69
2022-09-03T02:08:06.906Z,39.70
2022-09-03T02:10:55.463Z,39.71
2022-09-03T02:13:27.130Z,39.73
2022-09-03T02:15:54.624Z,39.74
2022-09-03T02:18:34.108Z,39.75
2022-09-03T02:21:01.008Z,39.79
2022-09-03T02:23:28.464Z,39.82
2022-09-03T02:26:00.192Z,39.85
2022-09-03T02:28:28.212Z,39.86
2022-09-03T02:30:55.186Z,39.86
2022-09-03T02:33:21.970Z,39.87
2022-09-03T02:35:48.879Z,39.90
2022-09-03T02:38:25.672Z,39.92
2022-09-03T02:40:54.469Z,39.92
2022-09-03T02:43:27.728Z,39.94
2022-09-03T02:45:56.185Z,39.95
2022-09-03T02:48:23.841Z,39.96
2022-09-03T02:50:50.606Z,39.99
2022-09-03T02:53:17.196Z,39.99
2022-09-03T02:55:43.763Z,40.01
2022-09-03T02:58:10.445Z,40.00
2022-09-03T03:00:37.291Z,40.04
2022-09-03T03:03:04.610Z,40.02
2022-09-03T03:05:42.331Z,40.01
2022-09-03T03:08:09.094Z,40.04
2022-09-03T03:10:35.706Z,40.05
2022-09-03T03:13:02.280Z,40.05
2022-09-03T03:15:28.900Z,40.04
2022-09-03T03:17:58.327Z,40.04
2022-09-03T03:20:24.936Z,40.06
2022-09-03T03:22:54.031Z,40.05
2022-09-03T03:25:20.617Z,40.05
2022-09-03T03:27:47.200Z,40.06
2022-09-03T03:30:13.859Z,40.06
2022-09-03T03:32:40.492Z,40.08
2022-09-03T03:35:07.463Z,40.08
2022-09-03T03:37:35.634Z,40.11
2022-09-03T03:40:02.969Z,40.08
2022-09-03T03:42:29.701Z,40.09
2022-09-03T03:44:56.321Z,40.10
2022-09-03T03:47:23.029Z,40.09
2022-09-03T03:49:49.621Z,40.08
2022-09-03T03:52:16.183Z,40.09
2022-09-03T03:54:42.795Z,40.09
2022-09-03T03:57:09.392Z,40.09
2022-09-03T03:59:35.990Z,40.12
2022-09-03T04:02:02.635Z,40.11
2022-09-03T04:04:29.270Z,40.10
2022-09-03T04:06:55.877Z,40.13
2022-09-03T04:09:22.443Z,40.14
2022-09-03T04:11:50.488Z,40.14
2022-09-03T04:14:18.147Z,40.15
2022-09-03T04:16:46.909Z,40.15
2022-09-03T04:19:13.721Z,40.15
2022-09-03T04:21:40.303Z,40.17
2022-09-03T04:24:07.101Z,40.18
2022-09-03T04:26:33.699Z,40.19
2022-09-03T04:29:01.474Z,40.19
2022-09-03T04:31:28.132Z,40.22
2022-09-03T04:33:55.002Z,40.23
2022-09-03T04:36:23.069Z,40.24
2022-09-03T04:38:50.842Z,40.24
2022-09-03T04:41:18.988Z,40.26
2022-09-03T04:43:46.098Z,40.25
2022-09-03T04:46:18.523Z,40.27
2022-09-03T04:48:47.926Z,40.27
2022-09-03T04:51:16.249Z,40.30
2022-09-03T04:53:45.487Z,40.31
2022-09-03T04:56:22.334Z,40.30
2022-09-03T04:58:51.019Z,40.32
2022-09-03T05:01:22.211Z,40.32
2022-09-03T05:03:48.877Z,40.32
2022-09-03T05:06:17.263Z,40.32
2022-09-03T05:08:46.419Z,40.31
2022-09-03T05:11:14.742Z,40.29
2022-09-03T05:13:41.318Z,40.32
2022-09-03T05:16:09.260Z,40.33
2022-09-03T05:18:36.099Z,40.33
2022-09-03T05:21:09.085Z,40.34
2022-09-03T05:23:37.754Z,40.33
2022-09-03T05:26:09.053Z,40.34
2022-09-03T05:28:38.964Z,40.34
2022-09-03T05:31:13.393Z,40.37
2022-09-03T05:33:42.143Z,40.35
2022-09-03T05:36:10.970Z,40.38
2022-09-03T05:38:37.688Z,40.36
2022-09-03T05:41:06.020Z,40.37
2022-09-03T05:43:32.762Z,40.38
2022-09-03T05:46:03.087Z,40.37
2022-09-03T05:48:30.272Z,40.37
2022-09-03T05:51:06.856Z,40.40
2022-09-03T05:53:35.223Z,40.39
2022-09-03T05:56:03.150Z,40.39
2022-09-03T05:58:36.373Z,40.40
2022-09-03T06:01:20.030Z,40.41
2022-09-03T06:03:48.178Z,40.40
2022-09-03T06:06:15.583Z,40.42
2022-09-03T06:08:42.432Z,40.42
2022-09-03T06:11:09.417Z,40.40
2022-09-03T06:13:36.005Z,40.39
2022-09-03T06:16:05.178Z,40.40
2022-09-03T06:18:31.894Z,40.40
2022-09-03T06:20:59.942Z,40.39
2022-09-03T06:23:26.821Z,40.37
2022-09-03T06:26:20.135Z,40.37
2022-09-03T06:28:48.472Z,40.37
2022-09-03T06:31:19.320Z,40.37
2022-09-03T06:33:47.213Z,40.36
2022-09-03T06:36:15.382Z,40.36
2022-09-03T06:38:42.212Z,40.37
2022-09-03T06:41:25.041Z,40.36
2022-09-03T06:44:02.303Z,40.37
2022-09-03T06:46:29.306Z,40.38
2022-09-03T06:48:55.883Z,40.39
2022-09-03T06:51:23.829Z,40.38
2022-09-03T06:53:51.895Z,40.38
2022-09-03T06:56:26.362Z,40.38
2022-09-03T06:58:54.568Z,40.37
2022-09-03T07:01:28.399Z,40.36
2022-09-03T07:03:58.879Z,40.37
2022-09-03T07:06:28.272Z,40.41
2022-09-03T07:08:55.611Z,40.43
2022-09-03T07:11:24.090Z,40.54
2022-09-03T07:13:51.704Z,40.44
2022-09-03T07:16:29.128Z,40.44
2022-09-03T07:18:56.743Z,40.48
2022-09-03T07:21:25.027Z,40.54
2022-09-03T07:23:52.494Z,40.52
2022-09-03T07:26:24.076Z,40.57
2022-09-03T07:28:50.793Z,40.63
2022-09-03T07:31:29.939Z,40.58
2022-09-03T07:34:01.135Z,40.63
2022-09-03T07:36:29.087Z,40.67
2022-09-03T07:39:01.968Z,40.75
2022-09-03T07:41:29.210Z,40.78
2022-09-03T07:43:57.060Z,40.77
2022-09-03T07:46:25.269Z,40.79
2022-09-03T07:48:56.213Z,40.80
2022-09-03T07:51:26.974Z,40.82
2022-09-03T07:53:55.036Z,40.85
2022-09-03T07:56:21.914Z,40.83
2022-09-03T07:58:48.525Z,40.86
2022-09-03T08:01:18.426Z,40.83
2022-09-03T08:03:46.365Z,40.82
2022-09-03T08:06:13.351Z,40.85
2022-09-03T08:08:40.365Z,40.84
2022-09-03T08:11:11.065Z,40.86
2022-09-03T08:13:40.856Z,40.88
2022-09-03T08:16:08.365Z,40.92
2022-09-03T08:18:37.875Z,40.94
2022-09-03T08:21:07.132Z,40.96
2022-09-03T08:23:38.117Z,41.00
2022-09-03T08:26:04.959Z,41.00
2022-09-03T08:28:33.008Z,41.02
2022-09-03T08:31:04.453Z,41.08
2022-09-03T08:33:37.172Z,41.08
2022-09-03T08:36:05.808Z,41.11
2022-09-03T08:38:33.312Z,41.13
2022-09-03T08:41:04.995Z,41.13
2022-09-03T08:43:31.581Z,41.17
2022-09-03T08:45:59.966Z,41.17
2022-09-03T08:48:26.819Z,41.21
2022-09-03T08:50:59.150Z,41.21
2022-09-03T08:53:30.497Z,41.24
2022-09-03T08:56:02.962Z,41.27
2022-09-03T08:58:31.386Z,41.24
2022-09-03T09:06:42.035Z,41.33
2022-09-03T09:09:23.289Z,41.32
2022-09-03T09:12:23.901Z,41.37
2022-09-03T09:15:05.648Z,41.38
2022-09-03T09:18:03.995Z,41.37
2022-09-03T09:21:18.965Z,41.38
2022-09-03T09:23:48.808Z,41.37
2022-09-03T09:26:16.682Z,41.39
2022-09-03T09:28:45.535Z,41.41
2022-09-03T09:31:15.515Z,41.41
2022-09-03T09:33:42.664Z,41.38
2022-09-03T09:36:11.802Z,41.42
2022-09-03T09:38:39.048Z,41.42
2022-09-03T09:41:13.105Z,41.42
2022-09-03T09:43:40.440Z,41.43
2022-09-03T09:46:21.564Z,41.42
2022-09-03T09:48:53.199Z,41.42
2022-09-03T09:51:21.195Z,41.44
2022-09-03T09:53:47.896Z,41.44
2022-09-03T09:56:22.526Z,41.43
2022-09-03T09:58:49.286Z,41.43
2022-09-03T10:01:23.471Z,41.42
2022-09-03T10:03:55.530Z,41.42
2022-09-03T10:06:48.498Z,41.43
2022-09-03T10:09:19.618Z,41.41
2022-09-03T10:11:50.825Z,41.44
2022-09-03T10:14:25.376Z,41.42
2022-09-03T10:16:57.403Z,41.44
2022-09-03T10:19:30.768Z,41.42
2022-09-03T10:22:09.544Z,41.42
2022-09-03T10:24:40.213Z,41.43
2022-09-03T10:27:11.300Z,41.40
2022-09-03T10:29:39.316Z,41.44
2022-09-03T10:32:13.417Z,41.36
2022-09-03T10:34:58.777Z,41.38
2022-09-03T10:37:48.083Z,41.39
2022-09-03T10:40:41.019Z,41.37
2022-09-03T10:43:13.974Z,41.40
2022-09-03T10:46:00.017Z,41.36
2022-09-03T10:49:06.226Z,41.34
2022-09-03T10:51:36.718Z,41.39
2022-09-03T10:54:40.412Z,41.36
2022-09-03T10:57:21.755Z,41.37
2022-09-03T11:00:12.979Z,41.40
2022-09-03T11:03:02.514Z,41.37
2022-09-03T11:05:37.172Z,41.33
2022-09-03T11:08:11.878Z,41.36
2022-09-03T11:10:41.959Z,41.38
2022-09-03T11:13:35.400Z,41.39
2022-09-03T11:16:32.378Z,41.35
2022-09-03T11:19:07.352Z,41.37
2022-09-03T11:21:35.166Z,41.39
2022-09-03T11:24:12.238Z,41.35
2022-09-03T11:26:39.639Z,41.39
2022-09-03T11:29:13.449Z,41.36
2022-09-03T11:31:49.840Z,41.31
2022-09-03T11:34:33.944Z,41.32
2022-09-03T11:37:17.332Z,41.27
2022-09-03T11:39:44.217Z,41.29
2022-09-03T11:42:12.473Z,41.28
2022-09-03T11:44:51.417Z,41.24
2022-09-03T11:47:37.392Z,41.14
2022-09-03T11:50:20.687Z,41.17
2022-09-03T11:52:53.226Z,41.19
2022-09-03T11:55:27.340Z,41.13
2022-09-03T11:57:55.728Z,41.10
2022-09-03T12:00:24.945Z,41.04
2022-09-03T12:02:58.989Z,41.05
2022-09-03T12:05:46.327Z,41.06
2022-09-03T12:08:35.705Z,41.04
2022-09-03T12:11:09.632Z,40.99
2022-09-03T12:13:54.425Z,40.97
2022-09-03T12:16:45.440Z,40.92
2022-09-03T12:19:41.278Z,40.97
2022-09-03T12:22:14.989Z,40.90
2022-09-03T12:24:45.082Z,40.87
2022-09-03T12:27:27.153Z,40.82
2022-09-03T12:29:58.110Z,40.77
2022-09-03T12:32:24.907Z,40.73
2022-09-03T12:34:51.472Z,40.76
2022-09-03T12:40:26.435Z,40.66
2022-09-03T12:42:53.854Z,40.65
2022-09-03T12:45:25.791Z,40.59
2022-09-03T12:47:53.375Z,40.54
2022-09-03T12:50:24.192Z,40.56
2022-09-03T12:52:56.040Z,40.46
2022-09-03T12:55:31.814Z,40.46
2022-09-03T12:58:08.341Z,40.46
2022-09-03T13:00:38.527Z,40.45
2022-09-03T13:03:05.005Z,40.41
2022-09-03T13:05:44.602Z,40.37
2022-09-03T13:08:19.064Z,40.37
2022-09-03T13:10:45.989Z,40.31
2022-09-03T13:13:26.598Z,40.32
2022-09-03T13:16:24.858Z,40.21
2022-09-03T13:19:13.424Z,40.33
2022-09-03T13:21:58.643Z,40.17
2022-09-03T13:24:54.447Z,40.20
2022-09-03T13:27:27.543Z,40.15
2022-09-03T13:30:05.577Z,40.18
2022-09-03T13:33:20.119Z,40.15
2022-09-03T13:35:54.913Z,40.09
2022-09-03T13:38:21.384Z,40.10
2022-09-03T13:40:56.276Z,40.04
2022-09-03T13:43:47.868Z,40.07
2022-09-03T13:46:40.390Z,40.03
2022-09-03T13:49:41.079Z,39.95
2022-09-03T13:52:11.694Z,39.89
2022-09-03T13:54:49.115Z,39.84
2022-09-03T13:57:25.109Z,39.69
2022-09-03T13:59:52.927Z,39.73
2022-09-03T14:03:05.308Z,39.69
2022-09-03T14:05:45.889Z,39.65
2022-09-03T14:08:25.081Z,39.63
2022-09-03T14:11:16.654Z,39.68
2022-09-03T14:14:06.144Z,39.68
2022-09-03T14:16:35.762Z,39.65
2022-09-03T14:19:07.304Z,39.63
2022-09-03T14:21:39.103Z,39.59
2022-09-03T14:24:19.698Z,39.60
2022-09-03T14:26:52.014Z,39.54
2022-09-03T14:29:18.581Z,39.49
2022-09-03T14:31:56.101Z,39.50
2022-09-03T14:34:45.196Z,39.47
2022-09-03T14:37:38.251Z,39.42
2022-09-03T14:40:18.866Z,39.39
2022-09-03T14:43:11.589Z,39.38
2022-09-03T14:46:02.386Z,39.35
2022-09-03T14:48:57.194Z,39.26
2022-09-03T14:51:54.461Z,39.29
2022-09-03T14:54:23.932Z,39.27
2022-09-03T14:57:12.878Z,39.19
2022-09-03T14:59:48.830Z,39.19
2022-09-03T15:02:24.443Z,39.25
2022-09-03T15:04:57.394Z,39.25
2022-09-03T15:07:45.230Z,39.19
2022-09-03T15:10:37.709Z,39.12
2022-09-03T15:13:17.158Z,39.14
2022-09-03T15:15:43.621Z,39.11
2022-09-03T15:18:31.185Z,39.13
2022-09-03T15:21:14.161Z,39.07
2022-09-03T15:24:00.175Z,39.15
2022-09-03T15:26:35.780Z,39.07
2022-09-03T15:29:14.011Z,39.07
2022-09-03T15:32:18.795Z,38.98
2022-09-03T15:35:05.534Z,38.98
2022-09-03T15:37:45.875Z,38.79
2022-09-03T15:40:18.570Z,39.01
2022-09-03T15:42:46.150Z,39.09
2022-09-03T15:45:38.062Z,39.13
2022-09-03T15:48:41.740Z,39.22
2022-09-03T15:51:21.080Z,39.08
2022-09-03T15:54:09.538Z,39.13
2022-09-03T15:56:52.644Z,39.08
2022-09-03T15:59:25.629Z,39.19
2022-09-03T16:02:20.945Z,39.12
2022-09-03T16:04:53.784Z,39.16
2022-09-03T16:07:34.358Z,39.19
2022-09-03T16:10:30.782Z,39.16
2022-09-03T16:13:04.632Z,39.12
2022-09-03T16:15:34.922Z,39.02
2022-09-03T16:18:08.696Z,38.94
2022-09-03T16:21:26.390Z,39.06
2022-09-03T16:23:56.490Z,39.09
2022-09-03T16:26:41.233Z,39.06
2022-09-03T16:29:09.715Z,39.08
2022-09-03T16:31:47.685Z,39.16
2022-09-03T16:34:37.124Z,39.16
2022-09-03T16:37:45.935Z,39.16
2022-09-03T16:40:24.483Z,39.14
2022-09-03T16:43:39.259Z,39.11
2022-09-03T16:46:24.410Z,39.10
2022-09-03T16:48:59.964Z,39.16
2022-09-03T16:51:32.356Z,39.18
2022-09-03T16:54:05.496Z,39.17
2022-09-03T16:56:38.767Z,39.14
2022-09-03T16:59:28.180Z,39.15
2022-09-03T17:02:41.343Z,39.18
2022-09-03T17:05:40.531Z,39.16
2022-09-03T17:08:22.242Z,39.16
2022-09-03T17:11:08.963Z,39.13
2022-09-03T17:13:54.485Z,39.17
2022-09-03T17:16:21.744Z,39.21
2022-09-03T17:19:25.902Z,39.23
2022-09-03T17:22:29.992Z,39.21
2022-09-03T17:25:07.847Z,39.23
2022-09-03T17:28:11.976Z,39.27
2022-09-03T17:30:59.135Z,39.23
2022-09-03T17:33:35.841Z,39.31
2022-09-03T17:36:31.412Z,39.29
2022-09-03T17:39:04.113Z,39.30
2022-09-03T17:41:55.817Z,39.32
2022-09-03T17:44:38.095Z,39.35
2022-09-03T17:47:19.901Z,39.31
2022-09-03T17:49:57.415Z,39.35
2022-09-03T17:52:39.149Z,39.33
2022-09-03T17:55:13.445Z,39.32
2022-09-03T17:57:48.405Z,39.33
2022-09-03T18:00:26.383Z,39.36
2022-09-03T18:02:56.708Z,39.38
2022-09-03T18:05:28.740Z,39.37
2022-09-03T18:08:14.041Z,39.38
2022-09-03T18:11:17.625Z,39.39
2022-09-03T18:14:13.783Z,39.39
2022-09-03T18:17:20.256Z,39.44
2022-09-03T18:20:24.343Z,39.42
2022-09-03T18:23:20.345Z,39.45
2022-09-03T18:26:08.794Z,39.47
2022-09-03T18:29:01.172Z,39.47
2022-09-03T18:31:46.208Z,39.49
2022-09-03T18:34:31.492Z,39.47
2022-09-03T18:37:17.618Z,39.52
2022-09-03T18:40:06.015Z,39.53
2022-09-03T18:43:17.426Z,39.52
2022-09-03T18:46:46.237Z,39.51
2022-09-03T18:49:19.543Z,39.53
2022-09-03T18:52:17.507Z,39.53
2022-09-03T18:55:29.362Z,39.54
2022-09-03T18:58:20.556Z,39.56
2022-09-03T19:01:14.503Z,39.54
2022-09-03T19:04:08.286Z,39.59
2022-09-03T19:06:53.784Z,39.57
2022-09-03T19:09:54.338Z,39.60
2022-09-03T19:13:03.557Z,39.58
2022-09-03T19:15:51.244Z,39.58
2022-09-03T19:19:13.841Z,39.63
2022-09-03T19:22:05.675Z,39.63
2022-09-03T19:24:50.982Z,39.61
2022-09-03T19:27:57.285Z,39.65
2022-09-03T19:31:02.869Z,39.67
2022-09-03T19:33:48.071Z,39.67
2022-09-03T19:36:52.361Z,39.68
2022-09-03T19:39:43.606Z,39.66
2022-09-03T19:43:17.148Z,39.72
2022-09-03T19:46:14.747Z,39.75
2022-09-03T19:49:15.169Z,39.73
2022-09-03T19:52:22.144Z,39.69
2022-09-03T19:55:08.593Z,39.78
2022-09-03T19:57:53.587Z,39.81
2022-09-03T20:00:41.541Z,39.80
2022-09-03T20:03:26.401Z,39.80
2022-09-03T20:06:11.764Z,39.82
2022-09-03T20:08:57.026Z,39.81
2022-09-03T20:11:23.787Z,39.86
2022-09-03T20:14:09.051Z,39.90
2022-09-03T20:16:54.347Z,39.86
2022-09-03T20:19:34.111Z,39.92
2022-09-03T20:22:23.080Z,39.81
2022-09-03T20:25:07.441Z,39.86
2022-09-03T20:27:52.800Z,39.81
2022-09-03T20:30:23.738Z,39.80
2022-09-03T20:33:15.730Z,39.77
2022-09-03T20:36:14.448Z,39.82
2022-09-03T20:38:56.195Z,39.85
2022-09-03T20:41:35.651Z,39.87
2022-09-03T20:44:24.102Z,39.78
2022-09-03T20:47:15.040Z,39.86
2022-09-03T20:50:04.242Z,39.80
2022-09-03T20:53:04.619Z,39.81
2022-09-03T20:55:50.987Z,39.88
2022-09-03T20:58:38.039Z,39.81
2022-09-03T21:01:09.077Z,39.85
2022-09-03T21:03:51.376Z,39.87
2022-09-03T21:06:38.928Z,39.81
2022-09-03T21:09:11.581Z,39.73
2022-09-03T21:11:49.462Z,39.88
2022-09-03T21:14:35.415Z,39.86
2022-09-03T21:17:18.927Z,39.79
2022-09-03T21:19:50.029Z,39.91
2022-09-03T21:22:52.687Z,39.90
2022-09-03T21:25:26.319Z,39.93
2022-09-03T21:28:15.696Z,39.87
2022-09-03T21:30:46.410Z,39.93
2022-09-03T21:33:20.844Z,40.01
2022-09-03T21:35:51.512Z,39.87
2022-09-03T21:38:20.897Z,39.91
2022-09-03T21:40:55.502Z,40.03
2022-09-03T21:43:24.941Z,40.00
2022-09-03T21:46:07.666Z,39.91
2022-09-03T21:48:47.083Z,40.04
2022-09-03T21:51:31.516Z,39.97
2022-09-03T21:54:10.477Z,39.91
2022-09-03T21:57:13.998Z,39.96
2022-09-03T22:00:17.792Z,39.85
2022-09-03T22:02:46.208Z,39.83
2022-09-03T22:05:14.129Z,39.94
2022-09-03T22:07:43.710Z,40.00
2022-09-03T22:10:34.283Z,39.99
2022-09-03T22:13:25.246Z,39.86
2022-09-03T22:15:51.970Z,39.79
2022-09-03T22:18:29.768Z,39.93
2022-09-03T22:21:01.180Z,39.85
2022-09-03T22:23:51.303Z,39.90
2022-09-03T22:26:31.293Z,39.88
2022-09-03T22:29:23.862Z,39.87
2022-09-03T22:32:11.083Z,40.04
2022-09-03T22:34:40.451Z,39.98
2022-09-03T22:37:23.686Z,39.89
2022-09-03T22:39:50.384Z,40.10
2022-09-03T22:42:35.833Z,39.90
2022-09-03T22:45:08.269Z,39.95
2022-09-03T22:47:55.834Z,39.89
2022-09-03T22:50:23.835Z,39.92
2022-09-03T22:53:31.497Z,39.91
2022-09-03T22:56:13.411Z,39.98
2022-09-03T22:58:47.459Z,40.22
2022-09-03T23:01:37.902Z,40.20
2022-09-03T23:04:35.631Z,39.95
2022-09-03T23:07:08.631Z,40.08
2022-09-03T23:09:36.638Z,39.96
2022-09-03T23:12:20.181Z,39.94
2022-09-03T23:14:54.378Z,39.96
2022-09-03T23:22:39.042Z,39.99
2022-09-03T23:25:20.843Z,40.04
2022-09-03T23:28:01.541Z,39.99
2022-09-03T23:30:28.229Z,40.08
2022-09-03T23:32:59.076Z,40.04
2022-09-03T23:35:27.798Z,40.03
2022-09-03T23:38:13.128Z,40.03
2022-09-03T23:40:50.380Z,40.05
2022-09-03T23:43:38.452Z,40.05
2022-09-03T23:46:14.383Z,40.11
2022-09-03T23:48:54.287Z,40.09
2022-09-03T23:51:56.220Z,40.12
2022-09-03T23:54:47.257Z,40.15
2022-09-03T23:57:26.513Z,40.15
